sensor_id;sensor_type;location;lat;lon;timestamp;P1;durP1;ratioP1;P2;durP2;ratioP2
2860;SDS011;1438;50.922;6.704;2022-12-31T00:00:33;0.90;;;0.50;;
2860;SDS011;1438;50.922;6.704;2022-12-31T00:03:00;0.63;;;0.50;;
2860;SDS011;1438;50.922;6.704;2022-12-31T00:05:28;0.50;;;0.40;;
2860;SDS011;1438;50.922;6.704;2022-12-31T00:07:55;2.13;;;0.60;;
2860;SDS011;1438;50.922;6.704;2022-12-31T00:10:21;0.70;;;0.43;;
2860;SDS011;1438;50.922;6.704;2022-12-31T00:12:47;0.60;;;0.50;;
2860;SDS011;1438;50.922;6.704;2022-12-31T00:15:13;0.70;;;0.50;;
2860;SDS011;1438;50.922;6.704;2022-12-31T00:17:39;0.50;;;0.40;;
2860;SDS011;1438;50.922;6.704;2022-12-31T00:20:05;4.13;;;0.70;;
2860;SDS011;1438;50.922;6.704;2022-12-31T00:22:31;0.70;;;0.40;;
2860;SDS011;1438;50.922;6.704;2022-12-31T00:24:57;1.50;;;0.50;;
2860;SDS011;1438;50.922;6.704;2022-12-31T00:27:24;1.63;;;0.50;;
2860;SDS011;1438;50.922;6.704;2022-12-31T00:29:50;0.80;;;0.50;;
2860;SDS011;1438;50.922;6.704;2022-12-31T00:32:16;0.60;;;0.50;;
2860;SDS011;1438;50.922;6.704;2022-12-31T00:34:42;0.60;;;0.50;;
2860;SDS011;1438;50.922;6.704;2022-12-31T00:37:08;1.53;;;0.40;;
2860;SDS011;1438;50.922;6.704;2022-12-31T00:39:34;0.60;;;0.50;;
2860;SDS011;1438;50.922;6.704;2022-12-31T00:42:00;0.50;;;0.40;;
2860;SDS011;1438;50.922;6.704;2022-12-31T00:44:26;1.00;;;0.50;;
2860;SDS011;1438;50.922;6.704;2022-12-31T00:46:52;0.60;;;0.40;;
2860;SDS011;1438;50.922;6.704;2022-12-31T00:49:18;0.63;;;0.50;;
2860;SDS011;1438;50.922;6.704;2022-12-31T00:51:44;0.60;;;0.40;;
2860;SDS011;1438;50.922;6.704;2022-12-31T00:54:11;0.60;;;0.50;;
2860;SDS011;1438;50.922;6.704;2022-12-31T00:56:37;0.60;;;0.50;;
2860;SDS011;1438;50.922;6.704;2022-12-31T00:59:03;0.60;;;0.40;;
2860;SDS011;1438;50.922;6.704;2022-12-31T01:01:34;0.50;;;0.40;;
2860;SDS011;1438;50.922;6.704;2022-12-31T01:04:01;0.70;;;0.50;;
2860;SDS011;1438;50.922;6.704;2022-12-31T01:06:27;0.50;;;0.40;;
2860;SDS011;1438;50.922;6.704;2022-12-31T01:08:53;0.60;;;0.43;;
2860;SDS011;1438;50.922;6.704;2022-12-31T01:11:20;0.60;;;0.40;;
2860;SDS011;1438;50.922;6.704;2022-12-31T01:13:53;0.60;;;0.40;;
2860;SDS011;1438;50.922;6.704;2022-12-31T01:16:20;0.77;;;0.50;;
2860;SDS011;1438;50.922;6.704;2022-12-31T01:18:47;0.60;;;0.40;;
2860;SDS011;1438;50.922;6.704;2022-12-31T01:21:13;1.43;;;0.40;;
2860;SDS011;1438;50.922;6.704;2022-12-31T01:23:40;0.60;;;0.43;;
2860;SDS011;1438;50.922;6.704;2022-12-31T01:26:07;0.60;;;0.40;;
2860;SDS011;1438;50.922;6.704;2022-12-31T01:28:34;0.57;;;0.40;;
2860;SDS011;1438;50.922;6.704;2022-12-31T01:31:04;1.63;;;0.43;;
2860;SDS011;1438;50.922;6.704;2022-12-31T01:33:30;0.60;;;0.50;;
2860;SDS011;1438;50.922;6.704;2022-12-31T01:36:00;0.70;;;0.50;;
2860;SDS011;1438;50.922;6.704;2022-12-31T01:38:26;0.50;;;0.40;;
2860;SDS011;1438;50.922;6.704;2022-12-31T01:40:52;0.50;;;0.40;;
2860;SDS011;1438;50.922;6.704;2022-12-31T01:43:19;0.50;;;0.40;;
2860;SDS011;1438;50.922;6.704;2022-12-31T01:45:46;0.50;;;0.40;;
2860;SDS011;1438;50.922;6.704;2022-12-31T01:48:13;0.60;;;0.40;;
2860;SDS011;1438;50.922;6.704;2022-12-31T01:50:40;0.50;;;0.40;;
2860;SDS011;1438;50.922;6.704;2022-12-31T01:53:06;1.07;;;0.97;;
2860;SDS011;1438;50.922;6.704;2022-12-31T01:55:34;1.33;;;0.40;;
2860;SDS011;1438;50.922;6.704;2022-12-31T01:58:09;0.50;;;0.40;;
2860;SDS011;1438;50.922;6.704;2022-12-31T02:00:36;0.50;;;0.37;;
2860;SDS011;1438;50.922;6.704;2022-12-31T02:03:02;0.50;;;0.40;;
2860;SDS011;1438;50.922;6.704;2022-12-31T02:05:35;0.73;;;0.40;;
2860;SDS011;1438;50.922;6.704;2022-12-31T02:08:02;0.63;;;0.50;;
2860;SDS011;1438;50.922;6.704;2022-12-31T02:10:30;0.50;;;0.40;;
2860;SDS011;1438;50.922;6.704;2022-12-31T02:12:56;0.50;;;0.40;;
2860;SDS011;1438;50.922;6.704;2022-12-31T02:15:24;0.60;;;0.40;;
2860;SDS011;1438;50.922;6.704;2022-12-31T02:17:59;2.40;;;0.50;;
2860;SDS011;1438;50.922;6.704;2022-12-31T02:34:08;0.50;;;0.40;;
2860;SDS011;1438;50.922;6.704;2022-12-31T02:36:37;0.83;;;0.60;;
2860;SDS011;1438;50.922;6.704;2022-12-31T02:39:05;0.67;;;0.50;;
2860;SDS011;1438;50.922;6.704;2022-12-31T02:41:32;0.60;;;0.40;;
2860;SDS011;1438;50.922;6.704;2022-12-31T02:44:21;0.50;;;0.40;;
2860;SDS011;1438;50.922;6.704;2022-12-31T02:52:05;0.87;;;0.40;;
2860;SDS011;1438;50.922;6.704;2022-12-31T02:54:41;0.57;;;0.43;;
2860;SDS011;1438;50.922;6.704;2022-12-31T02:57:10;0.60;;;0.40;;
2860;SDS011;1438;50.922;6.704;2022-12-31T02:59:47;0.50;;;0.40;;
2860;SDS011;1438;50.922;6.704;2022-12-31T03:02:34;0.60;;;0.50;;
2860;SDS011;1438;50.922;6.704;2022-12-31T03:05:01;3.27;;;0.70;;
2860;SDS011;1438;50.922;6.704;2022-12-31T03:07:29;0.90;;;0.60;;
2860;SDS011;1438;50.922;6.704;2022-12-31T03:09:56;0.60;;;0.40;;
2860;SDS011;1438;50.922;6.704;2022-12-31T03:12:24;1.00;;;0.50;;
2860;SDS011;1438;50.922;6.704;2022-12-31T03:15:09;1.17;;;0.50;;
2860;SDS011;1438;50.922;6.704;2022-12-31T03:18:07;0.50;;;0.40;;
2860;SDS011;1438;50.922;6.704;2022-12-31T03:20:35;1.63;;;0.67;;
2860;SDS011;1438;50.922;6.704;2022-12-31T03:23:22;0.60;;;0.40;;
2860;SDS011;1438;50.922;6.704;2022-12-31T03:25:48;1.20;;;0.57;;
2860;SDS011;1438;50.922;6.704;2022-12-31T03:28:16;0.60;;;0.50;;
2860;SDS011;1438;50.922;6.704;2022-12-31T03:30:43;0.50;;;0.40;;
2860;SDS011;1438;50.922;6.704;2022-12-31T03:33:09;0.50;;;0.40;;
2860;SDS011;1438;50.922;6.704;2022-12-31T03:35:35;1.80;;;0.40;;
2860;SDS011;1438;50.922;6.704;2022-12-31T03:38:02;0.70;;;0.40;;
2860;SDS011;1438;50.922;6.704;2022-12-31T03:40:29;1.13;;;0.50;;
2860;SDS011;1438;50.922;6.704;2022-12-31T03:42:55;1.80;;;0.50;;
2860;SDS011;1438;50.922;6.704;2022-12-31T03:45:21;0.70;;;0.50;;
2860;SDS011;1438;50.922;6.704;2022-12-31T03:47:47;0.60;;;0.40;;
2860;SDS011;1438;50.922;6.704;2022-12-31T03:50:14;0.80;;;0.43;;
2860;SDS011;1438;50.922;6.704;2022-12-31T03:52:40;0.60;;;0.40;;
2860;SDS011;1438;50.922;6.704;2022-12-31T03:55:07;1.00;;;0.50;;
2860;SDS011;1438;50.922;6.704;2022-12-31T03:57:33;0.77;;;0.40;;
2860;SDS011;1438;50.922;6.704;2022-12-31T03:59:59;1.10;;;0.50;;
2860;SDS011;1438;50.922;6.704;2022-12-31T04:02:25;0.50;;;0.40;;
2860;SDS011;1438;50.922;6.704;2022-12-31T04:04:51;1.73;;;0.43;;
2860;SDS011;1438;50.922;6.704;2022-12-31T04:07:17;0.60;;;0.50;;
2860;SDS011;1438;50.922;6.704;2022-12-31T04:09:43;1.27;;;0.60;;
2860;SDS011;1438;50.922;6.704;2022-12-31T04:12:09;0.73;;;0.50;;
2860;SDS011;1438;50.922;6.704;2022-12-31T04:14:36;0.70;;;0.53;;
2860;SDS011;1438;50.922;6.704;2022-12-31T04:17:02;0.73;;;0.50;;
2860;SDS011;1438;50.922;6.704;2022-12-31T04:19:28;1.00;;;0.40;;
2860;SDS011;1438;50.922;6.704;2022-12-31T04:21:54;1.00;;;0.50;;
2860;SDS011;1438;50.922;6.704;2022-12-31T04:24:20;0.67;;;0.50;;
2860;SDS011;1438;50.922;6.704;2022-12-31T04:26:46;1.03;;;0.50;;
2860;SDS011;1438;50.922;6.704;2022-12-31T04:29:12;0.73;;;0.47;;
2860;SDS011;1438;50.922;6.704;2022-12-31T04:31:38;0.80;;;0.50;;
2860;SDS011;1438;50.922;6.704;2022-12-31T04:34:05;0.90;;;0.50;;
2860;SDS011;1438;50.922;6.704;2022-12-31T04:36:31;0.60;;;0.40;;
2860;SDS011;1438;50.922;6.704;2022-12-31T04:38:57;0.97;;;0.47;;
2860;SDS011;1438;50.922;6.704;2022-12-31T04:41:23;1.17;;;0.60;;
2860;SDS011;1438;50.922;6.704;2022-12-31T04:43:54;1.07;;;0.50;;
2860;SDS011;1438;50.922;6.704;2022-12-31T04:46:25;2.40;;;0.50;;
2860;SDS011;1438;50.922;6.704;2022-12-31T04:48:51;1.03;;;0.60;;
2860;SDS011;1438;50.922;6.704;2022-12-31T04:51:18;0.70;;;0.50;;
2860;SDS011;1438;50.922;6.704;2022-12-31T04:53:44;0.60;;;0.60;;
2860;SDS011;1438;50.922;6.704;2022-12-31T04:56:10;0.80;;;0.50;;
2860;SDS011;1438;50.922;6.704;2022-12-31T04:58:37;0.60;;;0.50;;
2860;SDS011;1438;50.922;6.704;2022-12-31T05:01:03;0.77;;;0.50;;
2860;SDS011;1438;50.922;6.704;2022-12-31T05:03:30;1.50;;;0.63;;
2860;SDS011;1438;50.922;6.704;2022-12-31T05:06:03;1.17;;;0.60;;
2860;SDS011;1438;50.922;6.704;2022-12-31T05:08:30;1.50;;;0.57;;
2860;SDS011;1438;50.922;6.704;2022-12-31T05:10:56;1.93;;;0.60;;
2860;SDS011;1438;50.922;6.704;2022-12-31T05:13:22;1.60;;;0.70;;
2860;SDS011;1438;50.922;6.704;2022-12-31T05:15:48;0.97;;;0.53;;
2860;SDS011;1438;50.922;6.704;2022-12-31T05:18:15;1.07;;;0.60;;
2860;SDS011;1438;50.922;6.704;2022-12-31T05:20:41;1.33;;;0.53;;
2860;SDS011;1438;50.922;6.704;2022-12-31T05:23:07;3.80;;;0.70;;
2860;SDS011;1438;50.922;6.704;2022-12-31T05:25:33;1.23;;;0.60;;
2860;SDS011;1438;50.922;6.704;2022-12-31T05:27:59;1.13;;;0.70;;
2860;SDS011;1438;50.922;6.704;2022-12-31T05:30:25;2.20;;;0.60;;
2860;SDS011;1438;50.922;6.704;2022-12-31T05:32:51;1.00;;;0.60;;
2860;SDS011;1438;50.922;6.704;2022-12-31T05:35:17;1.57;;;0.50;;
2860;SDS011;1438;50.922;6.704;2022-12-31T05:37:44;0.90;;;0.67;;
2860;SDS011;1438;50.922;6.704;2022-12-31T05:40:10;1.00;;;0.63;;
2860;SDS011;1438;50.922;6.704;2022-12-31T05:42:36;2.37;;;0.80;;
2860;SDS011;1438;50.922;6.704;2022-12-31T05:45:03;5.37;;;0.57;;
2860;SDS011;1438;50.922;6.704;2022-12-31T05:47:29;0.97;;;0.60;;
2860;SDS011;1438;50.922;6.704;2022-12-31T05:49:55;1.43;;;0.60;;
2860;SDS011;1438;50.922;6.704;2022-12-31T05:52:21;1.53;;;0.70;;
2860;SDS011;1438;50.922;6.704;2022-12-31T05:54:47;2.60;;;0.80;;
2860;SDS011;1438;50.922;6.704;2022-12-31T05:57:13;0.80;;;0.50;;
2860;SDS011;1438;50.922;6.704;2022-12-31T05:59:39;1.73;;;0.50;;
2860;SDS011;1438;50.922;6.704;2022-12-31T06:02:05;1.50;;;0.80;;
2860;SDS011;1438;50.922;6.704;2022-12-31T06:04:31;0.60;;;0.50;;
2860;SDS011;1438;50.922;6.704;2022-12-31T06:06:57;1.33;;;0.60;;
2860;SDS011;1438;50.922;6.704;2022-12-31T06:09:23;1.37;;;0.70;;
2860;SDS011;1438;50.922;6.704;2022-12-31T06:11:49;2.70;;;0.70;;
2860;SDS011;1438;50.922;6.704;2022-12-31T06:14:16;1.90;;;0.63;;
2860;SDS011;1438;50.922;6.704;2022-12-31T06:16:42;2.20;;;0.60;;
2860;SDS011;1438;50.922;6.704;2022-12-31T06:19:08;1.17;;;0.60;;
2860;SDS011;1438;50.922;6.704;2022-12-31T06:21:34;0.70;;;0.60;;
2860;SDS011;1438;50.922;6.704;2022-12-31T06:24:00;1.30;;;0.70;;
2860;SDS011;1438;50.922;6.704;2022-12-31T06:26:26;1.70;;;0.70;;
2860;SDS011;1438;50.922;6.704;2022-12-31T06:28:52;2.83;;;0.60;;
2860;SDS011;1438;50.922;6.704;2022-12-31T06:31:18;0.90;;;0.60;;
2860;SDS011;1438;50.922;6.704;2022-12-31T06:33:45;1.20;;;0.70;;
2860;SDS011;1438;50.922;6.704;2022-12-31T06:36:11;2.10;;;0.70;;
2860;SDS011;1438;50.922;6.704;2022-12-31T06:38:39;1.53;;;0.63;;
2860;SDS011;1438;50.922;6.704;2022-12-31T06:41:06;1.57;;;0.80;;
2860;SDS011;1438;50.922;6.704;2022-12-31T06:43:34;0.70;;;0.50;;
2860;SDS011;1438;50.922;6.704;2022-12-31T06:46:03;2.73;;;0.80;;
2860;SDS011;1438;50.922;6.704;2022-12-31T06:48:29;0.70;;;0.60;;
2860;SDS011;1438;50.922;6.704;2022-12-31T06:50:56;1.53;;;0.70;;
2860;SDS011;1438;50.922;6.704;2022-12-31T06:53:22;1.00;;;0.70;;
2860;SDS011;1438;50.922;6.704;2022-12-31T06:55:48;2.20;;;0.73;;
2860;SDS011;1438;50.922;6.704;2022-12-31T06:58:14;2.30;;;0.80;;
2860;SDS011;1438;50.922;6.704;2022-12-31T07:13:42;0.63;;;0.50;;
2860;SDS011;1438;50.922;6.704;2022-12-31T07:21:32;3.00;;;0.70;;
2860;SDS011;1438;50.922;6.704;2022-12-31T07:23:59;0.90;;;0.50;;
2860;SDS011;1438;50.922;6.704;2022-12-31T07:37:16;3.10;;;0.70;;
2860;SDS011;1438;50.922;6.704;2022-12-31T07:40:07;0.73;;;0.50;;
2860;SDS011;1438;50.922;6.704;2022-12-31T07:42:38;1.97;;;1.07;;
2860;SDS011;1438;50.922;6.704;2022-12-31T07:47:37;1.33;;;0.93;;
2860;SDS011;1438;50.922;6.704;2022-12-31T07:50:03;3.63;;;0.77;;
2860;SDS011;1438;50.922;6.704;2022-12-31T07:52:30;1.13;;;0.70;;
2860;SDS011;1438;50.922;6.704;2022-12-31T07:54:56;2.70;;;0.73;;
2860;SDS011;1438;50.922;6.704;2022-12-31T07:57:22;1.13;;;0.87;;
2860;SDS011;1438;50.922;6.704;2022-12-31T08:00:12;2.27;;;0.67;;
2860;SDS011;1438;50.922;6.704;2022-12-31T08:10:36;1.43;;;0.80;;
2860;SDS011;1438;50.922;6.704;2022-12-31T08:13:04;2.03;;;0.80;;
2860;SDS011;1438;50.922;6.704;2022-12-31T08:15:30;1.30;;;0.70;;
2860;SDS011;1438;50.922;6.704;2022-12-31T08:17:57;1.70;;;0.90;;
2860;SDS011;1438;50.922;6.704;2022-12-31T08:20:23;2.00;;;1.00;;
2860;SDS011;1438;50.922;6.704;2022-12-31T08:30:15;0.70;;;0.60;;
2860;SDS011;1438;50.922;6.704;2022-12-31T08:32:58;4.10;;;0.87;;
2860;SDS011;1438;50.922;6.704;2022-12-31T08:38:15;0.80;;;0.70;;
2860;SDS011;1438;50.922;6.704;2022-12-31T08:40:46;0.90;;;0.70;;
2860;SDS011;1438;50.922;6.704;2022-12-31T08:43:28;3.47;;;0.67;;
2860;SDS011;1438;50.922;6.704;2022-12-31T08:45:57;1.40;;;0.90;;
2860;SDS011;1438;50.922;6.704;2022-12-31T08:48:26;1.67;;;0.80;;
2860;SDS011;1438;50.922;6.704;2022-12-31T08:50:54;2.00;;;0.83;;
2860;SDS011;1438;50.922;6.704;2022-12-31T08:53:20;1.00;;;0.70;;
2860;SDS011;1438;50.922;6.704;2022-12-31T08:55:47;1.30;;;0.80;;
2860;SDS011;1438;50.922;6.704;2022-12-31T09:00:49;1.73;;;1.00;;
2860;SDS011;1438;50.922;6.704;2022-12-31T09:03:21;1.40;;;0.60;;
2860;SDS011;1438;50.922;6.704;2022-12-31T09:08:36;3.07;;;1.33;;
2860;SDS011;1438;50.922;6.704;2022-12-31T09:11:11;4.97;;;0.87;;
2860;SDS011;1438;50.922;6.704;2022-12-31T09:16:26;2.73;;;0.70;;
2860;SDS011;1438;50.922;6.704;2022-12-31T09:18:56;1.83;;;0.97;;
2860;SDS011;1438;50.922;6.704;2022-12-31T09:21:22;1.37;;;0.77;;
2860;SDS011;1438;50.922;6.704;2022-12-31T09:23:48;3.00;;;1.00;;
2860;SDS011;1438;50.922;6.704;2022-12-31T09:26:39;1.70;;;1.17;;
2860;SDS011;1438;50.922;6.704;2022-12-31T09:29:16;1.90;;;0.97;;
2860;SDS011;1438;50.922;6.704;2022-12-31T09:31:48;2.47;;;0.70;;
2860;SDS011;1438;50.922;6.704;2022-12-31T09:36:56;1.00;;;0.70;;
2860;SDS011;1438;50.922;6.704;2022-12-31T09:42:14;1.87;;;1.17;;
2860;SDS011;1438;50.922;6.704;2022-12-31T10:07:50;1.17;;;0.93;;
2860;SDS011;1438;50.922;6.704;2022-12-31T10:27:18;4.53;;;0.90;;
2860;SDS011;1438;50.922;6.704;2022-12-31T10:38:06;3.57;;;1.20;;
2860;SDS011;1438;50.922;6.704;2022-12-31T10:47:04;2.50;;;1.30;;
2860;SDS011;1438;50.922;6.704;2022-12-31T11:00:26;2.80;;;1.13;;
2860;SDS011;1438;50.922;6.704;2022-12-31T11:06:08;2.40;;;1.00;;
2860;SDS011;1438;50.922;6.704;2022-12-31T11:14:59;2.13;;;1.10;;
2860;SDS011;1438;50.922;6.704;2022-12-31T11:23:39;4.23;;;2.40;;
2860;SDS011;1438;50.922;6.704;2022-12-31T11:31:39;5.33;;;1.27;;
2860;SDS011;1438;50.922;6.704;2022-12-31T11:37:09;2.67;;;1.63;;
2860;SDS011;1438;50.922;6.704;2022-12-31T11:39:48;2.47;;;1.33;;
2860;SDS011;1438;50.922;6.704;2022-12-31T11:47:19;0.93;;;0.83;;
2860;SDS011;1438;50.922;6.704;2022-12-31T11:50:36;2.47;;;1.07;;
2860;SDS011;1438;50.922;6.704;2022-12-31T11:52:56;1.77;;;1.00;;
2860;SDS011;1438;50.922;6.704;2022-12-31T11:56:08;1.00;;;0.80;;
2860;SDS011;1438;50.922;6.704;2022-12-31T11:58:54;2.60;;;0.97;;
2860;SDS011;1438;50.922;6.704;2022-12-31T12:01:21;1.60;;;1.10;;
2860;SDS011;1438;50.922;6.704;2022-12-31T12:03:54;2.30;;;1.20;;
2860;SDS011;1438;50.922;6.704;2022-12-31T12:06:30;2.23;;;1.10;;
2860;SDS011;1438;50.922;6.704;2022-12-31T12:09:19;2.50;;;1.00;;
2860;SDS011;1438;50.922;6.704;2022-12-31T12:11:58;3.43;;;1.47;;
2860;SDS011;1438;50.922;6.704;2022-12-31T12:14:33;2.67;;;1.20;;
2860;SDS011;1438;50.922;6.704;2022-12-31T12:17:00;1.90;;;0.97;;
2860;SDS011;1438;50.922;6.704;2022-12-31T12:19:29;2.80;;;1.20;;
2860;SDS011;1438;50.922;6.704;2022-12-31T12:21:56;3.27;;;1.03;;
2860;SDS011;1438;50.922;6.704;2022-12-31T12:24:28;2.50;;;1.10;;
2860;SDS011;1438;50.922;6.704;2022-12-31T12:26:55;2.00;;;0.80;;
2860;SDS011;1438;50.922;6.704;2022-12-31T12:29:28;5.53;;;1.23;;
2860;SDS011;1438;50.922;6.704;2022-12-31T12:31:59;4.93;;;1.43;;
2860;SDS011;1438;50.922;6.704;2022-12-31T12:36:54;2.97;;;1.00;;
2860;SDS011;1438;50.922;6.704;2022-12-31T12:39:21;1.43;;;1.20;;
2860;SDS011;1438;50.922;6.704;2022-12-31T12:44:38;1.10;;;0.73;;
2860;SDS011;1438;50.922;6.704;2022-12-31T12:47:06;2.07;;;1.00;;
2860;SDS011;1438;50.922;6.704;2022-12-31T12:49:39;1.50;;;0.80;;
2860;SDS011;1438;50.922;6.704;2022-12-31T12:52:13;1.63;;;1.10;;
2860;SDS011;1438;50.922;6.704;2022-12-31T12:57:56;4.83;;;1.20;;
2860;SDS011;1438;50.922;6.704;2022-12-31T13:14:52;1.93;;;1.50;;
2860;SDS011;1438;50.922;6.704;2022-12-31T13:17:02;8.20;;;1.20;;
2860;SDS011;1438;50.922;6.704;2022-12-31T13:20:01;3.47;;;1.07;;
2860;SDS011;1438;50.922;6.704;2022-12-31T13:22:47;4.10;;;1.43;;
2860;SDS011;1438;50.922;6.704;2022-12-31T13:25:50;3.20;;;1.40;;
2860;SDS011;1438;50.922;6.704;2022-12-31T13:28:19;2.23;;;1.33;;
2860;SDS011;1438;50.922;6.704;2022-12-31T13:30:48;2.03;;;1.30;;
2860;SDS011;1438;50.922;6.704;2022-12-31T13:33:19;2.13;;;1.20;;
2860;SDS011;1438;50.922;6.704;2022-12-31T13:35:56;3.33;;;1.30;;
2860;SDS011;1438;50.922;6.704;2022-12-31T13:40:57;6.80;;;1.60;;
2860;SDS011;1438;50.922;6.704;2022-12-31T13:48:58;9.50;;;3.97;;
2860;SDS011;1438;50.922;6.704;2022-12-31T13:54:17;2.57;;;1.13;;
2860;SDS011;1438;50.922;6.704;2022-12-31T13:56:50;2.30;;;1.30;;
2860;SDS011;1438;50.922;6.704;2022-12-31T13:59:19;2.20;;;1.33;;
2860;SDS011;1438;50.922;6.704;2022-12-31T14:07:40;5.17;;;1.50;;
2860;SDS011;1438;50.922;6.704;2022-12-31T14:09:58;3.03;;;1.70;;
2860;SDS011;1438;50.922;6.704;2022-12-31T14:15:18;2.63;;;1.73;;
2860;SDS011;1438;50.922;6.704;2022-12-31T14:18:04;2.90;;;1.80;;
2860;SDS011;1438;50.922;6.704;2022-12-31T14:26:04;3.77;;;1.40;;
2860;SDS011;1438;50.922;6.704;2022-12-31T14:28:37;3.37;;;1.40;;
2860;SDS011;1438;50.922;6.704;2022-12-31T14:31:16;4.53;;;1.37;;
2860;SDS011;1438;50.922;6.704;2022-12-31T14:34:04;4.10;;;1.90;;
2860;SDS011;1438;50.922;6.704;2022-12-31T14:39:24;2.20;;;1.23;;
2860;SDS011;1438;50.922;6.704;2022-12-31T14:47:55;2.47;;;1.20;;
2860;SDS011;1438;50.922;6.704;2022-12-31T14:50:42;2.50;;;1.40;;
2860;SDS011;1438;50.922;6.704;2022-12-31T14:56:03;2.90;;;1.83;;
2860;SDS011;1438;50.922;6.704;2022-12-31T14:58:34;4.57;;;1.63;;
2860;SDS011;1438;50.922;6.704;2022-12-31T15:03:39;2.93;;;1.30;;
2860;SDS011;1438;50.922;6.704;2022-12-31T15:09:02;3.00;;;1.37;;
2860;SDS011;1438;50.922;6.704;2022-12-31T15:14:19;2.30;;;1.27;;
2860;SDS011;1438;50.922;6.704;2022-12-31T15:21:50;4.53;;;1.80;;
2860;SDS011;1438;50.922;6.704;2022-12-31T15:24:25;1.33;;;1.10;;
2860;SDS011;1438;50.922;6.704;2022-12-31T15:26:58;1.83;;;0.90;;
2860;SDS011;1438;50.922;6.704;2022-12-31T15:29:30;2.97;;;1.60;;
2860;SDS011;1438;50.922;6.704;2022-12-31T15:32:14;4.60;;;1.30;;
2860;SDS011;1438;50.922;6.704;2022-12-31T15:34:44;4.20;;;2.70;;
2860;SDS011;1438;50.922;6.704;2022-12-31T15:43:00;1.87;;;1.03;;
2860;SDS011;1438;50.922;6.704;2022-12-31T15:45:36;3.53;;;1.43;;
2860;SDS011;1438;50.922;6.704;2022-12-31T15:48:07;1.93;;;1.30;;
2860;SDS011;1438;50.922;6.704;2022-12-31T15:50:40;1.90;;;1.10;;
2860;SDS011;1438;50.922;6.704;2022-12-31T15:53:07;2.13;;;1.70;;
2860;SDS011;1438;50.922;6.704;2022-12-31T15:56:00;1.70;;;1.50;;
2860;SDS011;1438;50.922;6.704;2022-12-31T15:58:30;2.40;;;1.30;;
2860;SDS011;1438;50.922;6.704;2022-12-31T16:03:42;3.90;;;1.40;;
2860;SDS011;1438;50.922;6.704;2022-12-31T16:06:24;4.00;;;1.27;;
2860;SDS011;1438;50.922;6.704;2022-12-31T16:08:53;2.80;;;1.90;;
2860;SDS011;1438;50.922;6.704;2022-12-31T16:11:19;2.60;;;1.20;;
2860;SDS011;1438;50.922;6.704;2022-12-31T16:13:51;4.67;;;2.03;;
2860;SDS011;1438;50.922;6.704;2022-12-31T16:16:20;5.00;;;2.57;;
2860;SDS011;1438;50.922;6.704;2022-12-31T16:18:48;4.03;;;1.57;;
2860;SDS011;1438;50.922;6.704;2022-12-31T16:21:27;2.40;;;1.43;;
2860;SDS011;1438;50.922;6.704;2022-12-31T16:24:05;5.93;;;1.57;;
2860;SDS011;1438;50.922;6.704;2022-12-31T16:26:47;3.40;;;1.60;;
2860;SDS011;1438;50.922;6.704;2022-12-31T16:29:16;2.03;;;1.20;;
2860;SDS011;1438;50.922;6.704;2022-12-31T16:31:43;3.43;;;1.50;;
2860;SDS011;1438;50.922;6.704;2022-12-31T16:34:17;4.70;;;1.80;;
2860;SDS011;1438;50.922;6.704;2022-12-31T16:36:54;2.23;;;1.17;;
2860;SDS011;1438;50.922;6.704;2022-12-31T16:44:44;3.53;;;1.47;;
2860;SDS011;1438;50.922;6.704;2022-12-31T16:47:18;1.90;;;1.40;;
2860;SDS011;1438;50.922;6.704;2022-12-31T16:50:00;3.13;;;1.50;;
2860;SDS011;1438;50.922;6.704;2022-12-31T16:52:38;3.20;;;1.47;;
2860;SDS011;1438;50.922;6.704;2022-12-31T16:55:09;3.33;;;2.10;;
2860;SDS011;1438;50.922;6.704;2022-12-31T16:57:46;3.90;;;1.50;;
2860;SDS011;1438;50.922;6.704;2022-12-31T17:00:18;3.60;;;1.47;;
2860;SDS011;1438;50.922;6.704;2022-12-31T17:05:33;5.20;;;1.67;;
2860;SDS011;1438;50.922;6.704;2022-12-31T17:08:27;2.47;;;1.90;;
2860;SDS011;1438;50.922;6.704;2022-12-31T17:11:02;1.90;;;1.37;;
2860;SDS011;1438;50.922;6.704;2022-12-31T17:13:29;3.73;;;1.53;;
2860;SDS011;1438;50.922;6.704;2022-12-31T17:15:58;3.77;;;1.40;;
2860;SDS011;1438;50.922;6.704;2022-12-31T17:18:26;4.70;;;1.43;;
2860;SDS011;1438;50.922;6.704;2022-12-31T17:21:03;4.43;;;1.10;;
2860;SDS011;1438;50.922;6.704;2022-12-31T17:23:33;3.33;;;1.63;;
2860;SDS011;1438;50.922;6.704;2022-12-31T17:26:10;6.83;;;2.13;;
2860;SDS011;1438;50.922;6.704;2022-12-31T17:31:39;2.70;;;1.50;;
2860;SDS011;1438;50.922;6.704;2022-12-31T17:36:36;4.77;;;1.47;;
2860;SDS011;1438;50.922;6.704;2022-12-31T17:41:46;3.13;;;1.80;;
2860;SDS011;1438;50.922;6.704;2022-12-31T17:44:20;2.27;;;1.37;;
2860;SDS011;1438;50.922;6.704;2022-12-31T17:46:49;4.87;;;1.53;;
2860;SDS011;1438;50.922;6.704;2022-12-31T17:49:16;3.70;;;1.77;;
2860;SDS011;1438;50.922;6.704;2022-12-31T17:51:45;5.83;;;1.77;;
2860;SDS011;1438;50.922;6.704;2022-12-31T17:54:15;4.07;;;1.43;;
2860;SDS011;1438;50.922;6.704;2022-12-31T17:56:42;4.10;;;1.77;;
2860;SDS011;1438;50.922;6.704;2022-12-31T17:59:21;7.93;;;1.93;;
2860;SDS011;1438;50.922;6.704;2022-12-31T18:01:49;3.57;;;1.80;;
2860;SDS011;1438;50.922;6.704;2022-12-31T18:04:15;2.73;;;1.30;;
2860;SDS011;1438;50.922;6.704;2022-12-31T18:06:42;4.00;;;1.60;;
2860;SDS011;1438;50.922;6.704;2022-12-31T18:09:08;5.23;;;1.83;;
2860;SDS011;1438;50.922;6.704;2022-12-31T18:11:35;2.13;;;1.40;;
2860;SDS011;1438;50.922;6.704;2022-12-31T18:14:02;4.60;;;1.20;;
2860;SDS011;1438;50.922;6.704;2022-12-31T18:16:29;6.90;;;1.60;;
2860;SDS011;1438;50.922;6.704;2022-12-31T18:18:55;3.53;;;1.70;;
2860;SDS011;1438;50.922;6.704;2022-12-31T18:23:58;5.27;;;2.20;;
2860;SDS011;1438;50.922;6.704;2022-12-31T18:26:26;4.90;;;1.67;;
2860;SDS011;1438;50.922;6.704;2022-12-31T18:28:52;8.23;;;2.80;;
2860;SDS011;1438;50.922;6.704;2022-12-31T18:31:22;10.53;;;3.47;;
2860;SDS011;1438;50.922;6.704;2022-12-31T18:33:49;5.13;;;1.40;;
2860;SDS011;1438;50.922;6.704;2022-12-31T18:36:17;10.07;;;1.97;;
2860;SDS011;1438;50.922;6.704;2022-12-31T18:38:44;2.73;;;1.40;;
2860;SDS011;1438;50.922;6.704;2022-12-31T18:41:14;5.37;;;1.97;;
2860;SDS011;1438;50.922;6.704;2022-12-31T18:43:44;7.33;;;1.67;;
2860;SDS011;1438;50.922;6.704;2022-12-31T18:46:12;8.73;;;1.63;;
2860;SDS011;1438;50.922;6.704;2022-12-31T18:48:39;5.30;;;1.67;;
2860;SDS011;1438;50.922;6.704;2022-12-31T18:51:05;7.20;;;1.93;;
2860;SDS011;1438;50.922;6.704;2022-12-31T18:53:36;3.83;;;2.00;;
2860;SDS011;1438;50.922;6.704;2022-12-31T18:56:01;6.03;;;2.43;;
2860;SDS011;1438;50.922;6.704;2022-12-31T18:58:27;5.00;;;1.60;;
2860;SDS011;1438;50.922;6.704;2022-12-31T19:00:53;3.37;;;1.57;;
2860;SDS011;1438;50.922;6.704;2022-12-31T19:03:20;8.13;;;2.03;;
2860;SDS011;1438;50.922;6.704;2022-12-31T19:05:47;6.70;;;1.63;;
2860;SDS011;1438;50.922;6.704;2022-12-31T19:08:17;3.80;;;1.30;;
2860;SDS011;1438;50.922;6.704;2022-12-31T19:10:44;3.53;;;1.47;;
2860;SDS011;1438;50.922;6.704;2022-12-31T19:13:11;2.33;;;1.60;;
2860;SDS011;1438;50.922;6.704;2022-12-31T19:15:42;3.70;;;2.13;;
2860;SDS011;1438;50.922;6.704;2022-12-31T19:18:19;10.90;;;1.70;;
2860;SDS011;1438;50.922;6.704;2022-12-31T19:20:45;3.57;;;1.60;;
2860;SDS011;1438;50.922;6.704;2022-12-31T19:23:15;8.40;;;3.03;;
2860;SDS011;1438;50.922;6.704;2022-12-31T19:25:43;3.13;;;1.77;;
2860;SDS011;1438;50.922;6.704;2022-12-31T19:28:13;2.60;;;1.40;;
2860;SDS011;1438;50.922;6.704;2022-12-31T19:30:50;3.57;;;1.50;;
2860;SDS011;1438;50.922;6.704;2022-12-31T19:33:16;7.47;;;2.33;;
2860;SDS011;1438;50.922;6.704;2022-12-31T19:35:43;6.37;;;3.40;;
2860;SDS011;1438;50.922;6.704;2022-12-31T19:38:17;5.13;;;1.70;;
2860;SDS011;1438;50.922;6.704;2022-12-31T19:40:44;6.93;;;2.77;;
2860;SDS011;1438;50.922;6.704;2022-12-31T19:43:11;5.87;;;2.27;;
2860;SDS011;1438;50.922;6.704;2022-12-31T19:45:39;16.47;;;9.03;;
2860;SDS011;1438;50.922;6.704;2022-12-31T19:48:13;38.90;;;13.73;;
2860;SDS011;1438;50.922;6.704;2022-12-31T19:50:44;47.20;;;25.13;;
2860;SDS011;1438;50.922;6.704;2022-12-31T19:53:14;6.50;;;2.00;;
2860;SDS011;1438;50.922;6.704;2022-12-31T19:55:44;3.93;;;1.73;;
2860;SDS011;1438;50.922;6.704;2022-12-31T19:58:17;6.20;;;1.50;;
2860;SDS011;1438;50.922;6.704;2022-12-31T20:00:45;6.47;;;1.50;;
2860;SDS011;1438;50.922;6.704;2022-12-31T20:03:11;3.67;;;1.60;;
2860;SDS011;1438;50.922;6.704;2022-12-31T20:05:37;6.10;;;2.00;;
2860;SDS011;1438;50.922;6.704;2022-12-31T20:08:03;2.93;;;1.67;;